Hartington, Nebraska
Current Conditions -  °F | °C
As of 1:55 PM on Friday 24 Oct 2014 (Local Time) from KYKN Reporting Station
Clear Clear  
Wind Chill: 70°   Ceiling: Unl
Heat Index: 70°   Visibility: 10mi
Dew Point: 45°   Wind: 6mph
Humidity: 40%   Direction: 300°WNW
Pressure: 29.91"   Gusts: NA
Location:  42.62°N, 97.26°W
Report Text: KYKN 241855Z AUTO 30005KT 10SM CLR 21/07 A2991 RMK AO1
Loading
Personal Weather Stations






























Interactive Weather Map
Tropical Storm Tracking
New forecast layout! Learn more

10-Day Weather Forecast

Advertisements
Track Severe Weather on mobile